Time;durP1;ratioP1;P1;durP2;ratioP2;P2;SDS_P1;SDS_P2;PMS_P1;PMS_P2;Temp;Humidity;BMP_temperature;BMP_pressure;BME280_temperature;BME280_humidity;BME280_pressure;Samples;Min_cycle;Max_cycle;Signal;HPM_P1;HPM_P2
2023/03/31 00:00:13;;;;;;;7.78;2.25;;;;;;;5.84;100.00;92478.50;2497094;23;20086;-84
2023/03/31 00:01:14;;;;;;;3.35;1.70;;;;;;;5.79;100.00;92477.84;2509829;23;20093;-85
2023/03/31 00:02:15;;;;;;;6.85;2.20;;;;;;;5.80;100.00;92470.63;2519540;23;20010;-84
2023/03/31 00:03:20;;;;;;;7.20;2.10;;;;;;;5.70;100.00;92472.25;2506741;23;20040;-84
2023/03/31 00:04:22;;;;;;;6.63;2.28;;;;;;;5.70;100.00;92472.25;2508759;23;20017;-84
2023/03/31 00:05:25;;;;;;;5.32;2.17;;;;;;;5.63;100.00;92468.97;2519467;23;20002;-85
2023/03/31 00:06:28;;;;;;;5.10;2.17;;;;;;;5.60;100.00;92464.47;2519849;23;20219;-83
2023/03/31 00:07:32;;;;;;;8.05;2.15;;;;;;;5.56;100.00;92462.59;2519242;23;20002;-84
2023/03/31 00:08:36;;;;;;;7.72;2.05;;;;;;;5.87;100.00;92467.13;2519352;23;20041;-84
2023/03/31 00:09:40;;;;;;;5.20;1.90;;;;;;;5.85;100.00;92456.16;2507133;23;20006;-84
2023/03/31 00:10:45;;;;;;;7.50;2.38;;;;;;;5.78;100.00;92467.63;2508730;23;20069;-83
2023/03/31 00:11:51;;;;;;;5.25;1.88;;;;;;;5.77;100.00;92458.91;2519505;23;20061;-83
2023/03/31 00:12:52;;;;;;;4.88;2.00;;;;;;;5.77;100.00;92460.81;2507014;23;20335;-84
2023/03/31 00:13:53;;;;;;;8.35;2.20;;;;;;;5.77;100.00;92463.47;2495304;23;20462;-83
2023/03/31 00:14:54;;;;;;;9.30;2.20;;;;;;;5.85;100.00;92466.78;2495811;23;20011;-85
2023/03/31 00:16:00;;;;;;;5.13;1.85;;;;;;;5.93;100.00;92463.66;2495153;23;20041;-83
2023/03/31 00:17:03;;;;;;;8.95;2.03;;;;;;;5.88;100.00;92461.41;2510003;23;20109;-84
2023/03/31 00:18:05;;;;;;;6.68;2.10;;;;;;;5.88;100.00;92456.09;2519461;23;20033;-84
2023/03/31 00:19:09;;;;;;;3.60;1.98;;;;;;;5.89;100.00;92454.22;2507294;23;20018;-84
2023/03/31 00:20:11;;;;;;;6.53;2.15;;;;;;;5.81;100.00;92448.25;2506874;23;20030;-84
2023/03/31 00:21:23;;;;;;;7.50;1.98;;;;;;;5.84;100.00;92455.41;2507013;23;20337;-84
2023/03/31 00:22:27;;;;;;;4.35;2.10;;;;;;;5.91;100.00;92441.28;2509285;23;20013;-83
2023/03/31 00:23:30;;;;;;;3.80;2.30;;;;;;;5.87;100.00;92443.25;2496296;23;20467;-84
2023/03/31 00:24:33;;;;;;;3.60;1.77;;;;;;;5.93;100.00;92439.03;2507124;23;20423;-84
2023/03/31 00:25:41;;;;;;;4.22;1.90;;;;;;;5.88;100.00;92440.19;2507248;23;20081;-83
2023/03/31 00:26:44;;;;;;;8.45;1.80;;;;;;;5.88;100.00;92437.53;2520230;23;20013;-84
2023/03/31 00:27:45;;;;;;;5.88;2.20;;;;;;;5.93;100.00;92439.03;2507513;23;20014;-83
2023/03/31 00:28:47;;;;;;;4.20;2.10;;;;;;;5.93;100.00;92428.41;2495825;23;20435;-83
2023/03/31 00:29:51;;;;;;;6.60;2.00;;;;;;;5.96;100.00;92433.66;2506880;23;20067;-83
2023/03/31 00:30:52;;;;;;;5.00;2.10;;;;;;;6.05;100.00;92425.16;2507261;23;20457;-84
2023/03/31 00:31:54;;;;;;;4.53;1.80;;;;;;;5.99;100.00;92434.75;2494623;23;20007;-84
2023/03/31 00:32:55;;;;;;;6.78;1.83;;;;;;;6.02;100.00;92440.00;2495429;23;20003;-84
2023/03/31 00:33:57;;;;;;;7.70;2.05;;;;;;;5.95;100.00;92437.47;2495102;23;20362;-84
2023/03/31 00:35:01;;;;;;;4.10;2.38;;;;;;;5.93;100.00;92431.81;2495798;23;20019;-83
2023/03/31 00:36:04;;;;;;;5.28;1.75;;;;;;;5.94;100.00;92429.91;2496590;23;20014;-84
2023/03/31 00:37:08;;;;;;;3.78;2.00;;;;;;;5.90;100.00;92427.28;2507829;23;20011;-83
2023/03/31 00:38:12;;;;;;;5.93;2.20;;;;;;;5.93;100.00;92431.81;2519146;23;20010;-84
2023/03/31 00:39:16;;;;;;;3.15;1.60;;;;;;;6.03;100.00;92428.25;2507182;23;20045;-83
2023/03/31 00:40:17;;;;;;;6.13;2.00;;;;;;;6.02;100.00;92426.00;2507787;23;20526;-83
2023/03/31 00:41:19;;;;;;;7.53;2.10;;;;;;;6.02;100.00;92423.34;2506857;23;20074;-84
2023/03/31 00:42:20;;;;;;;5.57;2.00;;;;;;;5.99;100.00;92418.84;2506692;23;20094;-84
2023/03/31 00:43:36;;;;;;;6.80;2.00;;;;;;;5.95;100.00;92428.75;2530858;23;20085;-83
2023/03/31 00:44:58;;;;;;;3.03;1.88;;;;;;;6.13;100.00;92431.13;2521917;23;20338;-84
2023/03/31 00:46:04;;;;;;;5.40;1.50;;;;;;;6.19;100.00;92429.50;2511542;23;20010;-84
2023/03/31 00:47:18;;;;;;;7.25;1.73;;;;;;;6.17;100.00;92429.91;2509362;23;20011;-84
2023/03/31 00:48:22;;;;;;;9.75;1.85;;;;;;;6.23;100.00;92433.63;2510148;23;20014;-84
2023/03/31 00:49:44;;;;;;;5.10;1.80;;;;;;;6.10;100.00;92421.31;2495635;23;20003;-83
2023/03/31 00:50:53;;;;;;;4.00;1.90;;;;;;;6.02;100.00;92429.41;2502393;23;20015;-83
2023/03/31 00:52:02;;;;;;;2.53;1.70;;;;;;;6.00;100.00;92423.72;2510234;23;20065;-83
2023/03/31 00:53:11;;;;;;;4.93;2.03;;;;;;;6.06;100.00;92426.69;2517549;23;20002;-83
2023/03/31 00:54:15;;;;;;;2.40;1.65;;;;;;;6.10;100.00;92429.28;2510271;23;20481;-83
2023/03/31 00:55:20;;;;;;;5.15;1.67;;;;;;;6.08;100.00;92435.00;2507455;23;20007;-84
2023/03/31 00:56:22;;;;;;;5.60;1.80;;;;;;;6.00;100.00;92426.38;2519415;23;20065;-83
2023/03/31 00:57:27;;;;;;;5.68;2.10;;;;;;;6.11;100.00;92420.91;2530620;23;20034;-84
2023/03/31 00:58:28;;;;;;;3.08;1.45;;;;;;;6.09;100.00;92422.47;2507590;23;20022;-83
2023/03/31 00:59:36;;;;;;;4.43;1.73;;;;;;;6.13;100.00;92425.81;2518901;23;20346;-83
2023/03/31 01:00:38;;;;;;;4.28;1.70;;;;;;;6.16;100.00;92427.66;2518440;23;20009;-84
2023/03/31 01:02:01;;;;;;;6.13;2.10;;;;;;;6.09;100.00;92430.44;2518018;23;20002;-85
2023/03/31 01:03:06;;;;;;;9.82;2.30;;;;;;;6.02;100.00;92434.69;2527990;23;20008;-84
2023/03/31 01:04:08;;;;;;;8.35;2.40;;;;;;;6.05;100.00;92425.91;2518849;23;20030;-83
2023/03/31 01:05:09;;;;;;;8.32;2.58;;;;;;;6.36;100.00;92440.97;2495577;23;20003;-83
2023/03/31 01:06:11;;;;;;;3.55;1.70;;;;;;;6.28;100.00;92438.47;2519168;23;20117;-83
2023/03/31 01:07:36;;;;;;;7.28;2.58;;;;;;;6.41;100.00;92437.84;2507081;23;20009;-83
2023/03/31 01:08:39;;;;;;;6.13;2.70;;;;;;;6.42;100.00;92432.16;2504778;23;20220;-83
2023/03/31 01:09:40;;;;;;;8.00;2.63;;;;;;;6.69;100.00;92433.97;2507612;23;20505;-84
2023/03/31 01:10:47;;;;;;;6.75;2.85;;;;;;;6.96;100.00;92436.50;2519345;23;20346;-83
2023/03/31 01:11:48;;;;;;;7.22;3.13;;;;;;;6.86;100.00;92435.53;2520495;23;20013;-84
2023/03/31 01:12:52;;;;;;;8.20;2.80;;;;;;;6.82;100.00;92432.19;2518165;23;19999;-83
2023/03/31 01:13:55;;;;;;;9.63;3.08;;;;;;;6.78;100.00;92431.53;2531585;23;20033;-85
2023/03/31 01:14:56;;;;;;;7.03;3.03;;;;;;;6.84;100.00;92427.22;2531231;23;20085;-82
2023/03/31 01:15:57;;;;;;;11.07;3.63;;;;;;;6.84;100.00;92429.88;2507522;23;20118;-83
2023/03/31 01:16:58;;;;;;;8.23;2.53;;;;;;;7.03;100.00;92431.81;2495891;23;20114;-83
2023/03/31 01:17:59;;;;;;;5.90;2.90;;;;;;;6.94;100.00;92436.91;2507478;23;20006;-83
2023/03/31 01:19:01;;;;;;;7.38;3.25;;;;;;;6.88;100.00;92435.88;2518621;23;20426;-83
2023/03/31 01:20:31;;;;;;;8.50;3.22;;;;;;;6.77;100.00;92438.75;2506169;23;20427;-83
2023/03/31 01:21:58;;;;;;;8.45;3.42;;;;;;;6.99;100.00;92436.44;2506050;23;20009;-82
2023/03/31 01:23:08;;;;;;;7.57;3.47;;;;;;;6.87;100.00;92434.38;2504871;23;20017;-83
2023/03/31 01:24:36;;;;;;;7.07;3.00;;;;;;;6.74;100.00;92444.84;2510328;23;20060;-83
2023/03/31 01:26:09;;;;;;;12.10;3.30;;;;;;;6.85;100.00;92443.91;2511311;23;20029;-83
2023/03/31 01:27:14;;;;;;;12.30;3.50;;;;;;;6.89;100.00;92442.72;2507119;23;20017;-83
2023/03/31 01:28:51;;;;;;;6.97;3.22;;;;;;;6.81;100.00;92441.34;2497064;23;20011;-83
2023/03/31 01:29:59;;;;;;;5.68;2.97;;;;;;;6.78;100.00;92436.81;2508857;23;20014;-83
2023/03/31 01:31:29;;;;;;;9.77;3.78;;;;;;;6.94;100.00;92426.28;2509823;23;20014;-83
2023/03/31 01:32:38;;;;;;;8.60;3.28;;;;;;;6.78;100.00;92420.91;2518250;23;20764;-82
2023/03/31 01:34:01;;;;;;;9.20;3.67;;;;;;;6.73;100.00;92418.72;2497746;23;20280;-83
2023/03/31 01:35:19;;;;;;;8.93;3.90;;;;;;;6.92;100.00;92417.97;2503928;23;20430;-83
2023/03/31 01:36:30;;;;;;;6.35;3.20;;;;;;;6.90;100.00;92404.34;2501439;23;20003;-83
2023/03/31 01:37:33;;;;;;;7.72;3.38;;;;;;;6.74;100.00;92391.00;2498633;23;20350;-83
2023/03/31 01:39:01;;;;;;;6.65;3.08;;;;;;;6.70;100.00;92385.75;2496062;23;20031;-83
2023/03/31 01:40:21;;;;;;;6.90;3.13;;;;;;;6.68;100.00;92374.78;2505256;23;20006;-82
2023/03/31 01:41:51;;;;;;;5.90;3.13;;;;;;;6.63;100.00;92374.50;2501727;23;20395;-84
2023/03/31 01:43:06;;;;;;;9.95;3.65;;;;;;;6.58;100.00;92367.75;2524366;23;20002;-83
2023/03/31 01:44:29;;;;;;;5.97;3.35;;;;;;;6.49;100.00;92349.72;2509740;23;20014;-83
2023/03/31 01:45:46;;;;;;;7.68;3.20;;;;;;;6.49;100.00;92346.31;2503809;23;20002;-83
2023/03/31 01:46:47;;;;;;;5.85;3.35;;;;;;;6.43;100.00;92354.00;2501820;23;20095;-82
2023/03/31 01:47:58;;;;;;;8.25;3.40;;;;;;;6.44;100.00;92355.50;2519558;23;20014;-83
2023/03/31 01:49:04;;;;;;;8.68;3.70;;;;;;;6.43;100.00;92347.97;2531107;23;20057;-83
2023/03/31 01:50:23;;;;;;;8.13;3.75;;;;;;;6.40;100.00;92338.16;2507574;23;20017;-84
2023/03/31 01:51:39;;;;;;;8.43;3.60;;;;;;;6.40;100.00;92327.53;2512651;23;20006;-82
2023/03/31 01:52:52;;;;;;;7.43;3.40;;;;;;;6.40;100.00;92325.63;2518201;23;20017;-83
2023/03/31 01:54:04;;;;;;;8.93;3.20;;;;;;;6.52;100.00;92314.41;2499520;23;20415;-83
2023/03/31 01:55:15;;;;;;;8.88;3.58;;;;;;;6.50;100.00;92314.06;2509285;23;20374;-84
2023/03/31 01:56:18;;;;;;;;;;;;;;;6.51;100.00;92310.25;2519648;23;20450;-84
2023/03/31 01:58:09;;;;;;;9.32;3.00;;;;;;;6.62;100.00;92301.31;2519915;23;20363;-84
2023/03/31 01:59:22;;;;;;;9.18;3.17;;;;;;;6.53;100.00;92304.53;2482105;23;20011;-84
2023/03/31 02:00:34;;;;;;;7.75;3.58;;;;;;;6.43;100.00;92306.22;2523447;23;20037;-84
2023/03/31 02:01:50;;;;;;;7.47;2.90;;;;;;;6.43;100.00;92303.59;2517884;23;20013;-83
2023/03/31 02:03:02;;;;;;;8.15;3.53;;;;;;;6.40;100.00;92309.69;2512270;23;20046;-83
2023/03/31 02:04:12;;;;;;;8.18;3.30;;;;;;;6.49;100.00;92298.53;2533541;23;20368;-84
2023/03/31 02:05:29;;;;;;;5.75;3.20;;;;;;;6.45;100.00;92297.84;2530807;23;20010;-83
2023/03/31 02:06:38;;;;;;;8.93;3.40;;;;;;;6.44;100.00;92283.84;2522033;23;20092;-83
2023/03/31 02:07:51;;;;;;;6.25;2.90;;;;;;;6.38;100.00;92285.47;2508434;23;20010;-83
2023/03/31 02:09:07;;;;;;;8.77;3.30;;;;;;;6.36;100.00;92285.13;2512064;23;20011;-84
2023/03/31 02:10:11;;;;;;;9.35;3.00;;;;;;;6.37;100.00;92285.91;2520874;23;20586;-83
2023/03/31 02:11:13;;;;;;;5.63;3.38;;;;;;;6.35;100.00;92275.69;2518898;23;20611;-83
2023/03/31 02:12:18;;;;;;;5.78;3.35;;;;;;;6.35;100.00;92278.34;2518676;23;20415;-83
2023/03/31 02:13:22;;;;;;;8.45;3.20;;;;;;;6.30;100.00;92265.53;2518943;23;20010;-83
2023/03/31 02:14:28;;;;;;;10.70;3.60;;;;;;;6.27;100.00;92248.53;2507317;23;20003;-83
2023/03/31 02:15:37;;;;;;;12.82;3.53;;;;;;;6.22;100.00;92256.97;2507641;23;20410;-83
2023/03/31 02:16:46;;;;;;;7.18;3.33;;;;;;;6.20;100.00;92240.72;2513683;23;20393;-84
2023/03/31 02:17:50;;;;;;;8.45;3.38;;;;;;;6.17;100.00;92235.47;2519071;23;20426;-83
2023/03/31 02:20:05;;;;;;;;;;;;;;;5.99;100.00;92241.13;2146512;27;20117;-84
2023/03/31 02:21:07;;;;;;;6.40;2.92;;;;;;;6.07;100.00;92242.50;2123263;27;20351;-85
2023/03/31 02:22:10;;;;;;;7.03;3.10;;;;;;;6.10;100.00;92240.91;2103825;27;20027;-84
2023/03/31 02:23:14;;;;;;;5.72;3.40;;;;;;;6.00;100.00;92232.75;2107273;27;20031;-85
2023/03/31 02:24:17;;;;;;;7.68;3.55;;;;;;;5.97;100.00;92232.81;2113506;27;20024;-84
2023/03/31 02:25:23;;;;;;;8.98;3.60;;;;;;;5.94;100.00;92221.13;2117162;28;20033;-84
2023/03/31 02:26:30;;;;;;;7.85;3.40;;;;;;;5.83;100.00;92220.53;2108892;27;20024;-83
2023/03/31 02:27:35;;;;;;;9.43;3.55;;;;;;;5.81;100.00;92225.50;2108485;27;20043;-82
2023/03/31 02:28:36;;;;;;;8.88;3.75;;;;;;;5.83;100.00;92231.13;2100379;28;20515;-83
2023/03/31 02:29:37;;;;;;;8.43;3.75;;;;;;;5.80;100.00;92224.03;2098738;28;20107;-82
2023/03/31 02:30:53;;;;;;;10.23;4.28;;;;;;;5.78;100.00;92219.09;2094785;28;20035;-82
2023/03/31 02:32:08;;;;;;;7.30;3.75;;;;;;;5.80;100.00;92224.03;2110986;28;20019;-83
2023/03/31 02:33:09;;;;;;;9.20;3.60;;;;;;;5.80;100.00;92222.13;2102606;28;20456;-82
2023/03/31 02:34:10;;;;;;;10.05;3.97;;;;;;;5.91;100.00;92235.16;2102954;28;20485;-83
2023/03/31 02:35:14;;;;;;;12.15;4.22;;;;;;;5.90;100.00;92223.06;2098592;28;20055;-83
2023/03/31 02:36:17;;;;;;;7.22;3.78;;;;;;;5.90;100.00;92217.00;2104621;28;20039;-82
2023/03/31 02:37:18;;;;;;;11.70;4.82;;;;;;;5.93;100.00;92216.97;2107547;27;20028;-83
2023/03/31 02:38:19;;;;;;;10.48;5.47;;;;;;;5.93;100.00;92218.88;2115716;28;20074;-82
2023/03/31 02:39:26;;;;;;;10.38;5.18;;;;;;;6.19;100.00;92215.34;2106836;27;20044;-83
2023/03/31 02:40:29;;;;;;;13.20;5.30;;;;;;;6.06;100.00;92211.81;2113551;27;20024;-82
2023/03/31 02:41:31;;;;;;;12.15;5.55;;;;;;;6.05;100.00;92208.38;2103342;28;20039;-83
2023/03/31 02:42:32;;;;;;;10.68;5.32;;;;;;;5.98;100.00;92207.81;2114615;27;20137;-83
2023/03/31 02:43:33;;;;;;;15.10;5.78;;;;;;;5.94;100.00;92197.25;2115137;28;20517;-83
2023/03/31 02:44:36;;;;;;;13.63;5.45;;;;;;;5.92;100.00;92201.47;2102622;28;20433;-82
2023/03/31 02:45:40;;;;;;;16.42;5.20;;;;;;;5.93;100.00;92208.28;2094673;28;20028;-82
2023/03/31 02:46:42;;;;;;;10.27;5.07;;;;;;;5.92;100.00;92199.56;2103717;27;20074;-83
2023/03/31 02:47:44;;;;;;;11.30;5.32;;;;;;;5.88;100.00;92196.19;2106899;28;20112;-82
2023/03/31 02:48:51;;;;;;;10.55;4.68;;;;;;;5.91;100.00;92184.03;2107463;28;20472;-82
2023/03/31 02:49:56;;;;;;;11.82;4.55;;;;;;;5.96;100.00;92186.22;2124598;27;20085;-82
2023/03/31 02:51:09;;;;;;;10.60;4.85;;;;;;;6.01;100.00;92183.88;2115062;28;20267;-82
2023/03/31 02:53:03;;;;;;;6.43;4.30;;;;;;;5.99;100.00;92177.47;2112139;27;20441;-85
2023/03/31 02:54:25;;;;;;;9.30;4.35;;;;;;;6.00;100.00;92166.44;2090113;28;20515;-84
2023/03/31 02:55:31;;;;;;;8.30;4.80;;;;;;;6.05;100.00;92167.84;2108368;28;20027;-82
2023/03/31 02:56:57;;;;;;;12.63;4.72;;;;;;;6.03;100.00;92164.88;2107782;28;20020;-85
2023/03/31 02:58:33;;;;;;;11.00;5.00;;;;;;;6.16;100.00;92159.69;2121444;27;20038;-84
2023/03/31 02:59:56;;;;;;;10.68;5.22;;;;;;;6.18;100.00;92155.47;2112741;28;20066;-84
2023/03/31 03:01:15;;;;;;;12.27;4.90;;;;;;;6.13;100.00;92148.00;2104682;28;20032;-84
2023/03/31 03:02:34;;;;;;;8.20;5.13;;;;;;;6.10;100.00;92145.41;2110031;27;20114;-85
2023/03/31 03:03:59;;;;;;;14.18;5.53;;;;;;;6.03;100.00;92141.00;2109467;28;20103;-85
2023/03/31 03:05:28;;;;;;;13.43;4.68;;;;;;;6.13;100.00;92136.63;2112323;27;20502;-84
2023/03/31 03:06:36;;;;;;;8.73;4.22;;;;;;;6.09;100.00;92123.44;2117760;27;20020;-85
2023/03/31 03:07:44;;;;;;;8.35;4.25;;;;;;;6.09;100.00;92122.69;2108009;28;20038;-84
2023/03/31 03:09:07;;;;;;;7.68;3.83;;;;;;;6.07;100.00;92120.47;2104694;28;20024;-85
2023/03/31 03:10:16;;;;;;;9.02;4.47;;;;;;;6.02;100.00;92116.38;2103910;28;20107;-85
2023/03/31 03:11:52;;;;;;;11.47;4.80;;;;;;;5.98;100.00;92115.72;2100428;28;20036;-84
2023/03/31 03:13:05;;;;;;;14.48;4.18;;;;;;;6.11;100.00;92109.78;2105175;28;20461;-85
2023/03/31 03:14:36;;;;;;;6.93;4.30;;;;;;;5.95;100.00;92102.50;2101668;28;20471;-84
2023/03/31 03:15:55;;;;;;;10.65;4.53;;;;;;;5.93;100.00;92105.59;2108720;28;20089;-85
2023/03/31 03:17:05;;;;;;;10.13;4.15;;;;;;;5.91;100.00;92104.47;2106794;28;20024;-86
2023/03/31 03:18:07;;;;;;;10.35;3.95;;;;;;;5.87;100.00;92109.09;2105982;28;20080;-85
2023/03/31 03:19:09;;;;;;;12.50;4.60;;;;;;;5.81;100.00;92098.22;2116632;28;20160;-84
2023/03/31 03:20:13;;;;;;;13.00;4.80;;;;;;;5.75;100.00;92105.16;2100449;28;20047;-84
2023/03/31 03:21:14;;;;;;;9.68;4.28;;;;;;;5.66;100.00;92103.06;2103502;28;20027;-85
2023/03/31 03:22:16;;;;;;;10.82;4.68;;;;;;;5.63;100.00;92097.84;2106442;28;20020;-84
2023/03/31 03:23:17;;;;;;;10.10;4.10;;;;;;;5.76;100.00;92088.09;2102694;28;20023;-84
2023/03/31 03:24:21;;;;;;;8.18;3.90;;;;;;;5.83;100.00;92090.59;2098118;28;20457;-85
2023/03/31 03:25:23;;;;;;;8.60;4.07;;;;;;;5.73;100.00;92080.97;2098942;28;20024;-84
2023/03/31 03:26:26;;;;;;;8.00;4.03;;;;;;;5.67;100.00;92079.97;2106836;28;20104;-85
2023/03/31 03:27:28;;;;;;;10.35;4.97;;;;;;;5.63;100.00;92077.38;2099403;28;20127;-84
2023/03/31 03:28:30;;;;;;;8.77;4.63;;;;;;;5.61;100.00;92066.41;2113551;27;20035;-85
2023/03/31 03:29:32;;;;;;;8.85;4.32;;;;;;;5.55;100.00;92068.81;2110510;27;20360;-86
2023/03/31 03:30:36;;;;;;;8.35;3.75;;;;;;;5.54;100.00;92059.38;2097103;28;20541;-84
2023/03/31 03:31:40;;;;;;;12.20;4.40;;;;;;;5.53;100.00;92054.47;2100982;28;20047;-85
2023/03/31 03:32:41;;;;;;;9.38;4.07;;;;;;;5.55;100.00;92052.16;2105794;28;20015;-85
2023/03/31 03:33:43;;;;;;;6.75;4.00;;;;;;;5.59;100.00;92054.75;2108686;28;20431;-85
2023/03/31 03:34:44;;;;;;;14.27;4.60;;;;;;;5.54;100.00;92053.34;2100763;28;20048;-84
2023/03/31 03:35:45;;;;;;;10.70;4.60;;;;;;;5.56;100.00;92045.69;2104963;28;20031;-85
2023/03/31 03:36:46;;;;;;;6.10;4.40;;;;;;;5.49;100.00;92046.59;2117800;27;20019;-84
2023/03/31 03:37:47;;;;;;;9.07;4.22;;;;;;;5.54;100.00;92042.72;2110801;28;20060;-85
2023/03/31 03:38:48;;;;;;;7.88;4.82;;;;;;;5.52;100.00;92035.16;2100805;28;20020;-84
2023/03/31 03:39:49;;;;;;;8.27;4.40;;;;;;;5.49;100.00;92035.25;2093821;28;20048;-85
2023/03/31 03:40:55;;;;;;;10.23;4.43;;;;;;;5.55;100.00;92025.66;2096826;28;20433;-85
2023/03/31 03:41:58;;;;;;;6.75;4.00;;;;;;;5.47;100.00;92033.00;2093608;28;20284;-85
2023/03/31 03:43:00;;;;;;;9.48;4.22;;;;;;;5.43;100.00;92027.03;2089455;28;20025;-84
2023/03/31 03:44:01;;;;;;;12.93;4.38;;;;;;;5.50;100.00;92018.94;2099959;28;20477;-84
2023/03/31 03:45:04;;;;;;;11.30;4.85;;;;;;;5.50;100.00;92016.28;2100528;28;20031;-85
2023/03/31 03:46:05;;;;;;;9.02;4.28;;;;;;;5.50;100.00;92010.25;2092402;28;20389;-84
2023/03/31 03:47:07;;;;;;;10.15;4.47;;;;;;;5.47;100.00;92014.44;2092655;28;20038;-85
2023/03/31 03:48:08;;;;;;;7.53;4.05;;;;;;;5.73;100.00;92017.34;2108856;28;20030;-85
2023/03/31 03:49:10;;;;;;;7.47;4.03;;;;;;;5.62;100.00;92016.81;2100317;28;20067;-84
2023/03/31 03:50:13;;;;;;;8.35;4.38;;;;;;;5.63;100.00;92015.66;2100213;28;20400;-84
2023/03/31 03:51:15;;;;;;;9.98;4.30;;;;;;;5.65;100.00;92008.03;2102137;27;20444;-84
2023/03/31 03:52:16;;;;;;;9.15;4.50;;;;;;;5.63;100.00;92005.06;2098427;28;20036;-84
2023/03/31 03:53:17;;;;;;;7.85;4.07;;;;;;;5.61;100.00;92002.06;2090085;28;20039;-85
2023/03/31 03:54:18;;;;;;;9.95;4.10;;;;;;;5.66;100.00;91997.00;2092314;28;20607;-85
2023/03/31 03:55:19;;;;;;;8.45;4.13;;;;;;;5.81;100.00;92005.41;2100679;28;20027;-84
2023/03/31 03:56:20;;;;;;;8.80;3.83;;;;;;;5.77;100.00;92000.19;2109398;28;20074;-84
2023/03/31 03:57:21;;;;;;;9.60;4.05;;;;;;;5.71;100.00;91988.59;2105250;28;20403;-84
2023/03/31 03:58:22;;;;;;;11.45;4.55;;;;;;;5.73;100.00;91990.81;2100761;28;20110;-84
2023/03/31 03:59:23;;;;;;;8.77;4.47;;;;;;;5.68;100.00;91986.75;2100356;28;20020;-84
2023/03/31 04:00:24;;;;;;;9.13;4.25;;;;;;;5.74;100.00;91984.34;2108496;28;20067;-84
2023/03/31 04:01:26;;;;;;;10.32;3.80;;;;;;;5.74;100.00;91971.84;2098610;28;20032;-84
2023/03/31 04:02:27;;;;;;;6.35;4.30;;;;;;;5.70;100.00;91979.13;2109064;28;20389;-84
2023/03/31 04:03:28;;;;;;;9.32;4.13;;;;;;;5.80;100.00;91969.47;2111598;28;20039;-84
2023/03/31 04:04:29;;;;;;;7.70;4.47;;;;;;;5.86;100.00;91969.72;2094725;28;20533;-84
2023/03/31 04:05:30;;;;;;;10.40;4.50;;;;;;;5.79;100.00;91960.78;2100993;28;20508;-84
2023/03/31 04:06:31;;;;;;;11.25;4.50;;;;;;;5.79;100.00;91954.69;2091962;28;20492;-85
2023/03/31 04:07:32;;;;;;;8.65;4.25;;;;;;;5.78;100.00;91955.88;2100714;28;20087;-85
2023/03/31 04:08:33;;;;;;;9.15;4.57;;;;;;;5.76;100.00;91947.59;2096667;28;20465;-85
2023/03/31 04:09:34;;;;;;;12.23;4.30;;;;;;;5.79;100.00;91946.75;2096575;28;20413;-85
2023/03/31 04:10:35;;;;;;;7.72;4.65;;;;;;;5.73;100.00;91943.09;2091051;28;20025;-84
2023/03/31 04:11:36;;;;;;;4.93;3.88;;;;;;;5.68;100.00;91939.03;2092349;28;20032;-84
2023/03/31 04:12:37;;;;;;;8.45;4.40;;;;;;;5.68;100.00;91939.03;2092026;28;20413;-85
2023/03/31 04:13:38;;;;;;;11.40;5.40;;;;;;;5.76;100.00;91952.88;2091678;28;20024;-84
2023/03/31 04:14:40;;;;;;;13.93;6.38;;;;;;;5.77;100.00;91949.06;2109164;28;20582;-84
2023/03/31 04:15:41;;;;;;;10.15;5.32;;;;;;;5.76;100.00;91953.63;2106599;28;20055;-85
2023/03/31 04:16:45;;;;;;;8.90;5.30;;;;;;;5.73;100.00;91954.44;2108114;28;20028;-84
2023/03/31 04:17:49;;;;;;;8.88;4.65;;;;;;;5.93;100.00;91951.78;2109236;28;20036;-84
2023/03/31 04:18:55;;;;;;;8.73;5.30;;;;;;;5.85;100.00;91955.72;2101318;28;20447;-84
2023/03/31 04:20:00;;;;;;;12.88;4.93;;;;;;;5.91;100.00;91950.66;2093290;28;20043;-84
2023/03/31 04:21:05;;;;;;;12.93;5.50;;;;;;;5.92;100.00;91952.16;2093285;28;20053;-85
2023/03/31 04:22:10;;;;;;;11.07;4.93;;;;;;;5.84;100.00;91958.75;2092831;28;20361;-84
2023/03/31 04:23:13;;;;;;;9.98;5.10;;;;;;;5.96;100.00;91961.53;2093005;28;20050;-84
2023/03/31 04:24:20;;;;;;;10.23;5.22;;;;;;;6.03;100.00;91948.13;2109389;28;20020;-85
2023/03/31 04:25:21;;;;;;;8.48;4.85;;;;;;;6.22;100.00;91943.13;2116593;27;20035;-85
2023/03/31 04:26:29;;;;;;;10.50;5.20;;;;;;;6.08;100.00;91946.13;2102590;28;20024;-85
2023/03/31 04:27:32;;;;;;;8.57;4.68;;;;;;;5.98;100.00;91945.22;2099754;28;20504;-84
2023/03/31 04:28:36;;;;;;;10.95;4.80;;;;;;;5.98;100.00;91942.56;2100153;28;20093;-85
2023/03/31 04:29:38;;;;;;;7.78;4.97;;;;;;;6.01;100.00;91937.19;2103203;28;20098;-85
2023/03/31 04:30:41;;;;;;;9.20;4.38;;;;;;;5.97;100.00;91925.13;2099145;28;20441;-85
2023/03/31 04:31:42;;;;;;;8.70;4.63;;;;;;;6.04;100.00;91911.72;2108351;28;20055;-85
2023/03/31 04:32:43;;;;;;;8.75;4.30;;;;;;;6.08;100.00;91907.06;2100239;28;20118;-84
2023/03/31 04:33:45;;;;;;;9.63;4.97;;;;;;;5.96;100.00;91911.13;2091594;28;20408;-84
2023/03/31 04:34:49;;;;;;;12.23;5.22;;;;;;;5.94;100.00;91910.06;2097611;28;20152;-84
2023/03/31 04:35:51;;;;;;;8.48;4.53;;;;;;;5.95;100.00;91911.56;2099766;28;20102;-85
2023/03/31 04:36:55;;;;;;;10.07;5.90;;;;;;;5.94;100.00;91916.13;2100889;28;20512;-85
2023/03/31 04:37:57;;;;;;;16.95;9.00;;;;;;;6.05;100.00;91923.81;2092824;28;20516;-84
2023/03/31 04:38:59;;;;;;;14.85;5.22;;;;;;;6.11;100.00;91935.44;2100529;28;20035;-84
2023/03/31 04:40:08;;;;;;;9.27;6.78;;;;;;;6.02;100.00;91933.38;2099937;28;20024;-84
2023/03/31 04:41:10;;;;;;;9.13;5.32;;;;;;;5.98;100.00;91934.63;2089980;28;20043;-84
2023/03/31 04:42:11;;;;;;;8.95;6.80;;;;;;;6.02;100.00;91928.06;2090211;28;20032;-85
2023/03/31 04:43:13;;;;;;;7.90;5.28;;;;;;;6.14;100.00;91931.94;2086678;28;20070;-84
2023/03/31 04:44:14;;;;;;;12.48;5.28;;;;;;;6.14;100.00;91944.44;2087121;28;20029;-86
2023/03/31 04:45:15;;;;;;;9.18;5.10;;;;;;;6.09;100.00;91942.31;2086761;28;20374;-86
2023/03/31 04:46:16;;;;;;;10.65;5.00;;;;;;;6.07;100.00;91940.06;2093765;28;20119;-84
2023/03/31 04:47:18;;;;;;;11.85;5.45;;;;;;;6.08;100.00;91954.81;2103716;28;20028;-84
2023/03/31 04:48:19;;;;;;;9.65;5.53;;;;;;;6.11;100.00;91955.91;2092791;28;20032;-85
2023/03/31 04:49:20;;;;;;;8.30;5.47;;;;;;;6.16;100.00;91950.09;2094116;28;20029;-85
2023/03/31 04:50:21;;;;;;;12.32;5.80;;;;;;;6.16;100.00;91939.50;2095313;28;20024;-84
2023/03/31 04:51:22;;;;;;;12.23;4.97;;;;;;;6.17;100.00;91943.63;2091622;28;20031;-85
2023/03/31 04:52:23;;;;;;;7.78;5.13;;;;;;;6.12;100.00;91936.19;2099799;28;20032;-85
2023/03/31 04:53:25;;;;;;;13.63;4.88;;;;;;;6.07;100.00;91931.38;2095142;28;20489;-86
2023/03/31 04:54:26;;;;;;;7.22;4.90;;;;;;;6.08;100.00;91915.03;2104057;28;20027;-84
2023/03/31 04:55:27;;;;;;;8.50;5.00;;;;;;;6.06;100.00;91917.38;2095950;28;20025;-85
2023/03/31 04:56:28;;;;;;;10.32;5.28;;;;;;;6.09;100.00;91905.16;2095822;28;20115;-84
2023/03/31 04:57:29;;;;;;;8.52;4.57;;;;;;;6.19;100.00;91917.41;2095995;28;20090;-85
2023/03/31 04:58:32;;;;;;;13.38;5.03;;;;;;;6.11;100.00;91906.25;2095443;28;20496;-85
2023/03/31 04:59:35;;;;;;;9.82;5.22;;;;;;;6.10;100.00;91909.31;2086629;28;20055;-86
2023/03/31 05:00:38;;;;;;;11.85;4.80;;;;;;;6.08;100.00;91907.06;2105738;28;20473;-84
2023/03/31 05:01:44;;;;;;;8.38;5.57;;;;;;;6.04;100.00;91912.47;2092330;28;20017;-85
2023/03/31 05:02:45;;;;;;;11.52;5.22;;;;;;;5.98;100.00;91922.09;2102300;28;20020;-84
2023/03/31 05:03:47;;;;;;;10.18;5.68;;;;;;;5.96;100.00;91934.25;2086462;28;20017;-85
2023/03/31 05:04:50;;;;;;;8.75;5.25;;;;;;;6.03;100.00;91942.06;2088123;28;20049;-85
2023/03/31 05:05:53;;;;;;;12.07;5.95;;;;;;;5.97;100.00;91938.41;2096882;28;20024;-84
2023/03/31 05:06:55;;;;;;;12.82;6.00;;;;;;;5.95;100.00;91943.38;2104852;28;20392;-84
2023/03/31 05:07:56;;;;;;;10.00;5.57;;;;;;;5.91;100.00;91938.13;2103522;28;20020;-85
2023/03/31 05:08:57;;;;;;;8.57;5.45;;;;;;;5.91;100.00;91930.19;2091802;28;20630;-84
2023/03/31 05:09:58;;;;;;;10.23;5.05;;;;;;;5.91;100.00;91927.53;2105822;27;20031;-84
2023/03/31 05:10:59;;;;;;;9.85;4.85;;;;;;;5.88;100.00;91907.13;2097728;28;20089;-84
2023/03/31 05:12:00;;;;;;;11.07;5.45;;;;;;;5.94;100.00;91897.56;2100564;28;20932;-80
2023/03/31 05:13:01;;;;;;;9.65;5.72;;;;;;;5.92;100.00;91904.44;2095883;28;20024;-84